Scilly, United Kingdom
Current Conditions -  °F | °C
As of 11:50 AM on Saturday 20 Dec 2014 (Local Time) from EGHE Reporting Station
Scattered Clouds Scattered Clouds  
Wind Chill: 10°   Ceiling: Unl
Heat Index: 10°   Visibility: 6mi
Dew Point:   Wind: 18mph
Humidity: 76%   Direction: 320°NW
Pressure: 30.5"   Gusts: NA
Location:  49.93°N, 6.31°W
Report Text: EGHE 201150Z 32016KT 9999 FEW016 SCT029 10/06 Q1033
Loading
Personal Weather Stations






























Interactive Weather Map New forecast layout! Learn more

10-Day Weather Forecast

Advertisements
Track Severe Weather on mobile